Terminal Aerodrome Forecast
Issued by NWS Wilmington, OH

Current Version | Previous Version | Text Only | Print | Product List | Glossary Off
Versions: 1 2 3 4 5 6 7 8 9 10 11 12 13 14 15 16 17

803
FTUS41 KILN 031732
TAFDAY
TAF
KDAY 031732Z 0318/0418 23019G28KT P6SM FEW040
     FM040000 26016G23KT P6SM OVC018
     FM040300 26013KT P6SM OVC015
     FM041500 27010KT P6SM BKN025=

USA.gov is the U.S. government's official web portal to all federal, state and local government web resources and services.